createdAt,value
2022-09-06T18:19:55.887Z,17.8
2022-09-06T18:21:39.201Z,17.8
2022-09-06T18:26:40.505Z,17.7
2022-09-06T18:36:39.237Z,17.6
2022-09-06T18:41:39.283Z,17.6
2022-09-06T18:46:39.429Z,17.6
2022-09-06T18:51:39.404Z,17.5
2022-09-06T18:56:39.496Z,17.5
2022-09-06T19:06:39.609Z,17.3
2022-09-06T19:11:39.667Z,17.3
2022-09-06T19:16:40.066Z,17.3
2022-09-06T19:21:42.301Z,17.3
2022-09-06T19:26:40.058Z,17.3
2022-09-06T19:31:39.980Z,17.0
2022-09-06T19:36:40.091Z,16.5
2022-09-06T19:41:40.121Z,16.1
2022-09-06T19:46:44.878Z,16.1
2022-09-06T19:51:40.237Z,15.9
2022-09-06T19:56:40.084Z,15.8
2022-09-06T20:01:40.149Z,15.6
2022-09-06T20:06:40.031Z,15.6
2022-09-06T20:11:40.146Z,15.4
2022-09-06T20:16:42.239Z,15.3
2022-09-06T20:21:39.720Z,15.2
2022-09-06T20:26:39.603Z,15.2
2022-09-06T20:31:39.683Z,15.2
2022-09-06T20:36:39.561Z,15.1
2022-09-06T20:41:39.504Z,15.2
2022-09-06T20:46:39.391Z,15.2
2022-09-06T20:51:39.341Z,15.2
2022-09-06T21:01:39.199Z,15.1
2022-09-06T21:06:39.122Z,15.1
2022-09-06T21:11:39.015Z,15.1
2022-09-06T21:16:38.922Z,15.1
2022-09-06T21:21:38.810Z,15.1
2022-09-06T21:31:38.663Z,15.2
2022-09-06T21:41:38.561Z,15.2
2022-09-06T21:51:38.333Z,15.4
2022-09-06T21:56:38.158Z,15.5
2022-09-06T22:01:38.033Z,15.5
2022-09-06T22:06:37.956Z,15.5
2022-09-06T22:11:37.895Z,15.5
2022-09-06T22:16:37.915Z,15.5
2022-09-06T22:21:37.833Z,15.5
2022-09-06T22:31:37.760Z,15.6
2022-09-06T22:36:37.703Z,15.6
2022-09-06T22:41:37.693Z,15.6
2022-09-06T22:46:37.647Z,15.7
2022-09-06T22:51:37.623Z,15.7
2022-09-06T22:56:37.574Z,15.6
2022-09-06T23:01:37.555Z,15.6
2022-09-06T23:06:37.395Z,15.5
2022-09-06T23:11:37.401Z,15.4
2022-09-06T23:16:37.386Z,15.4
2022-09-06T23:21:37.367Z,15.3
2022-09-06T23:26:37.272Z,15.3
2022-09-06T23:41:37.038Z,15.1
2022-09-06T23:46:37.049Z,15.1
2022-09-06T23:51:36.888Z,15.2
